createdAt,value
2023-04-08T00:02:16.362Z,9.08
2023-04-08T00:04:45.560Z,9.22
2023-04-08T00:07:12.522Z,8.73
2023-04-08T00:09:39.371Z,9.24
2023-04-08T00:12:09.461Z,9.09
2023-04-08T00:14:38.522Z,9.28
2023-04-08T00:17:05.249Z,9.26
2023-04-08T00:19:36.173Z,9.20
2023-04-08T00:22:05.632Z,9.07
2023-04-08T00:24:34.765Z,9.22
2023-04-08T00:27:02.947Z,9.26
2023-04-08T00:29:29.737Z,9.26
2023-04-08T00:31:56.743Z,9.18
2023-04-08T00:34:26.210Z,9.18
2023-04-08T00:36:56.507Z,9.28
2023-04-08T00:39:25.814Z,9.28
2023-04-08T00:41:52.727Z,9.23
2023-04-08T00:44:21.594Z,9.26
2023-04-08T00:46:48.887Z,9.28
2023-04-08T00:49:17.972Z,9.29
2023-04-08T00:51:44.800Z,9.23
2023-04-08T00:54:11.674Z,9.29
2023-04-08T00:56:38.715Z,9.29
2023-04-08T00:59:06.146Z,9.20
2023-04-08T01:01:45.258Z,9.30
2023-04-08T01:04:31.721Z,9.29
2023-04-08T01:07:33.880Z,9.31
2023-04-08T01:10:08.233Z,9.33
2023-04-08T01:12:42.484Z,9.23
2023-04-08T01:15:12.313Z,9.28
2023-04-08T01:17:41.890Z,9.31
2023-04-08T01:20:09.960Z,9.33
2023-04-08T01:23:02.059Z,9.32
2023-04-08T01:25:35.853Z,9.28
2023-04-08T01:28:09.204Z,9.22
2023-04-08T01:30:41.098Z,8.18
2023-04-08T01:33:08.570Z,9.06
2023-04-08T01:35:38.526Z,9.17
2023-04-08T01:38:11.924Z,9.15
2023-04-08T01:40:41.282Z,9.14
2023-04-08T01:43:10.172Z,9.13
2023-04-08T01:45:39.362Z,9.09
2023-04-08T01:48:09.449Z,9.04
2023-04-08T01:50:38.076Z,9.04
2023-04-08T01:53:06.254Z,9.09
2023-04-08T01:55:36.749Z,9.00
2023-04-08T01:58:07.350Z,8.36
2023-04-08T02:00:39.910Z,8.90
2023-04-08T02:03:08.526Z,9.02
2023-04-08T02:05:35.488Z,9.06
2023-04-08T02:08:02.469Z,9.02
2023-04-08T02:10:31.599Z,9.04
2023-04-08T02:12:58.341Z,9.01
2023-04-08T02:15:32.168Z,8.99
2023-04-08T02:18:09.203Z,8.93
2023-04-08T02:20:44.321Z,8.96
2023-04-08T02:23:18.202Z,8.80
2023-04-08T02:25:47.158Z,8.64
2023-04-08T02:28:16.023Z,8.88
2023-04-08T02:30:44.593Z,8.81
2023-04-08T02:33:14.217Z,8.81
2023-04-08T02:35:42.206Z,8.75
2023-04-08T02:38:10.953Z,8.71
2023-04-08T02:40:37.912Z,8.60
2023-04-08T02:43:04.768Z,8.49
2023-04-08T02:45:37.807Z,8.50
2023-04-08T02:48:06.578Z,8.23
2023-04-08T02:50:36.256Z,8.36
2023-04-08T02:53:03.019Z,8.21
2023-04-08T02:55:29.939Z,8.19
2023-04-08T02:57:56.800Z,8.19
2023-04-08T03:00:23.829Z,8.22
2023-04-08T03:02:50.920Z,8.09
2023-04-08T03:05:18.203Z,8.13
2023-04-08T03:07:47.514Z,8.20
2023-04-08T03:10:14.499Z,8.23
2023-04-08T03:12:41.493Z,8.24
2023-04-08T03:15:11.562Z,8.21
2023-04-08T03:17:38.376Z,8.12
2023-04-08T03:20:06.414Z,8.15
2023-04-08T03:22:34.339Z,8.16
2023-04-08T03:25:01.304Z,8.13
2023-04-08T03:27:30.197Z,8.19
2023-04-08T03:29:59.545Z,8.13
2023-04-08T03:32:29.337Z,8.15
2023-04-08T03:34:56.201Z,8.14
2023-04-08T03:37:23.216Z,8.16
2023-04-08T03:39:50.184Z,7.81
2023-04-08T03:42:16.989Z,8.11
2023-04-08T03:44:43.829Z,8.10
2023-04-08T03:47:12.905Z,7.97
2023-04-08T03:49:42.024Z,8.10
2023-04-08T03:52:08.940Z,8.06
2023-04-08T03:54:35.789Z,7.98
2023-04-08T03:57:02.416Z,7.84
2023-04-08T03:59:34.212Z,8.02
2023-04-08T04:02:01.078Z,8.08
2023-04-08T04:04:27.995Z,8.04
2023-04-08T04:06:54.753Z,8.04
2023-04-08T04:09:21.440Z,8.00
2023-04-08T04:11:48.276Z,8.01
2023-04-08T04:14:15.008Z,7.93
2023-04-08T04:16:43.840Z,8.00
2023-04-08T04:19:10.608Z,7.88
2023-04-08T04:21:39.689Z,7.26
2023-04-08T04:24:06.726Z,7.81
2023-04-08T04:26:33.446Z,7.68
2023-04-08T04:29:00.474Z,7.94
2023-04-08T04:31:30.325Z,7.85
2023-04-08T04:33:57.268Z,7.91
2023-04-08T04:36:26.554Z,7.77
2023-04-08T04:38:53.935Z,7.92
2023-04-08T04:41:22.075Z,7.62
2023-04-08T04:43:48.957Z,7.84
2023-04-08T04:46:20.637Z,7.69
2023-04-08T04:48:50.374Z,7.89
2023-04-08T04:51:20.917Z,7.85
2023-04-08T04:53:50.283Z,7.58
2023-04-08T04:56:17.239Z,7.91
2023-04-08T04:58:46.834Z,7.78
2023-04-08T05:01:18.385Z,7.86
2023-04-08T05:03:48.370Z,7.93
2023-04-08T05:06:15.756Z,7.93
2023-04-08T05:08:42.633Z,7.79
2023-04-08T05:11:10.958Z,7.94
2023-04-08T05:13:41.999Z,7.96
2023-04-08T05:16:10.303Z,7.96
2023-04-08T05:18:39.975Z,7.97
2023-04-08T05:21:08.812Z,7.97
2023-04-08T05:23:36.085Z,7.96
2023-04-08T05:26:02.927Z,7.85
2023-04-08T05:28:29.804Z,7.97
2023-04-08T05:30:56.741Z,7.97
2023-04-08T05:33:23.582Z,7.99
2023-04-08T05:35:55.164Z,7.95
2023-04-08T05:38:21.916Z,7.93
2023-04-08T05:40:48.607Z,7.98
2023-04-08T05:43:17.760Z,8.02
2023-04-08T05:45:44.840Z,7.98
2023-04-08T05:48:11.964Z,8.02
2023-04-08T05:50:41.070Z,7.65
2023-04-08T05:53:07.852Z,7.87
2023-04-08T05:55:49.048Z,7.87
2023-04-08T05:58:28.704Z,8.00
2023-04-08T06:00:55.704Z,8.01
2023-04-08T06:03:23.029Z,8.01
2023-04-08T06:05:50.315Z,7.98
2023-04-08T06:08:19.873Z,7.87
2023-04-08T06:10:52.843Z,7.91
2023-04-08T06:13:21.157Z,7.80
2023-04-08T06:15:51.127Z,7.76
2023-04-08T06:18:17.935Z,7.09
2023-04-08T06:20:44.759Z,7.79
2023-04-08T06:23:11.717Z,7.78
2023-04-08T06:25:38.541Z,7.80
2023-04-08T06:28:05.430Z,7.20
2023-04-08T06:30:32.294Z,7.94
2023-04-08T06:32:59.675Z,7.97
2023-04-08T06:35:33.330Z,7.96
2023-04-08T06:38:03.471Z,7.86
2023-04-08T06:40:32.914Z,7.89
2023-04-08T06:42:59.628Z,8.04
2023-04-08T06:45:26.497Z,8.09
2023-04-08T06:47:53.444Z,7.99
2023-04-08T06:50:20.557Z,8.05
2023-04-08T06:52:53.243Z,8.04
2023-04-08T06:55:20.006Z,8.09
2023-04-08T06:57:46.815Z,8.01
2023-04-08T07:00:13.965Z,8.01
2023-04-08T07:02:41.150Z,8.10
2023-04-08T07:05:11.396Z,8.08
2023-04-08T07:07:40.450Z,7.94
2023-04-08T07:10:11.117Z,8.09
2023-04-08T07:12:38.089Z,8.11
2023-04-08T07:15:05.234Z,8.19
2023-04-08T07:17:32.571Z,8.23
2023-04-08T07:19:59.487Z,8.30
2023-04-08T07:22:26.214Z,8.36
2023-04-08T07:24:53.021Z,8.33
2023-04-08T07:27:19.804Z,8.26
2023-04-08T07:29:46.627Z,8.30
2023-04-08T07:32:16.294Z,8.28
2023-04-08T07:34:45.649Z,8.20
2023-04-08T07:37:12.323Z,8.28
2023-04-08T07:39:39.134Z,8.22
2023-04-08T07:42:06.141Z,8.28
2023-04-08T07:44:41.245Z,8.35
2023-04-08T07:47:13.995Z,8.34
2023-04-08T07:49:50.778Z,8.33
2023-04-08T07:52:21.569Z,8.33
2023-04-08T07:54:55.016Z,8.45
2023-04-08T07:57:23.479Z,8.46
2023-04-08T07:59:50.664Z,8.34
2023-04-08T08:02:19.798Z,8.39
2023-04-08T08:04:46.632Z,8.22
2023-04-08T08:07:13.468Z,8.51
2023-04-08T08:09:40.145Z,8.44
2023-04-08T08:12:07.092Z,8.35
2023-04-08T08:14:33.767Z,8.39
2023-04-08T08:17:01.669Z,8.41
2023-04-08T08:19:30.850Z,8.22
2023-04-08T08:21:58.051Z,8.57
2023-04-08T08:24:26.028Z,8.53
2023-04-08T08:26:55.612Z,8.73
2023-04-08T08:29:22.229Z,8.73
2023-04-08T08:31:48.923Z,8.68
2023-04-08T08:34:17.719Z,8.73
2023-04-08T08:36:44.389Z,8.62
2023-04-08T08:39:13.455Z,8.76
2023-04-08T08:41:41.254Z,8.79
2023-04-08T08:44:11.116Z,8.91
2023-04-08T08:46:42.528Z,9.00
2023-04-08T08:49:09.140Z,9.06
2023-04-08T08:51:36.272Z,9.12
2023-04-08T08:54:06.609Z,9.20
2023-04-08T08:56:34.466Z,9.12
2023-04-08T08:59:01.203Z,9.18
2023-04-08T09:01:38.367Z,9.24
2023-04-08T09:04:19.917Z,9.24
2023-04-08T09:06:52.674Z,9.25
2023-04-08T09:09:21.603Z,9.29
2023-04-08T09:11:48.204Z,9.29
2023-04-08T09:14:25.615Z,9.39
2023-04-08T09:16:53.025Z,9.48
2023-04-08T09:19:19.823Z,9.64
2023-04-08T09:22:04.129Z,9.72
2023-04-08T09:24:32.127Z,9.88
2023-04-08T09:26:58.908Z,10.23
2023-04-08T09:29:29.861Z,10.59
2023-04-08T09:32:01.556Z,10.65
2023-04-08T09:34:30.870Z,10.69
2023-04-08T09:36:57.482Z,10.57
2023-04-08T09:39:24.433Z,10.60
2023-04-08T09:41:52.388Z,10.79
2023-04-08T09:44:26.646Z,10.88
2023-04-08T09:47:08.449Z,10.95
2023-04-08T09:49:46.987Z,11.12
2023-04-08T09:52:33.599Z,11.21
2023-04-08T09:55:09.332Z,11.33
2023-04-08T09:57:43.389Z,11.68
2023-04-08T10:00:17.526Z,11.55
2023-04-08T10:02:53.908Z,11.45
2023-04-08T10:05:22.374Z,11.32
2023-04-08T10:07:55.230Z,11.48
2023-04-08T10:10:29.063Z,11.24
2023-04-08T10:12:56.912Z,11.61
2023-04-08T10:15:26.820Z,11.76
2023-04-08T10:17:57.365Z,11.61
2023-04-08T10:21:03.441Z,11.69
2023-04-08T10:23:55.600Z,11.89
2023-04-08T10:26:35.524Z,11.78
2023-04-08T10:29:27.272Z,11.64
2023-04-08T10:31:55.932Z,11.92
2023-04-08T10:34:27.038Z,12.44
2023-04-08T10:37:00.357Z,12.72
2023-04-08T10:39:27.847Z,12.78
2023-04-08T10:41:54.947Z,12.70
2023-04-08T10:44:24.726Z,12.93
2023-04-08T10:46:56.499Z,12.85
2023-04-08T10:49:34.130Z,12.76
2023-04-08T10:52:01.031Z,12.49
2023-04-08T10:54:29.319Z,12.65
2023-04-08T10:56:56.215Z,13.08
2023-04-08T10:59:34.924Z,13.14
2023-04-08T11:02:02.639Z,13.44
2023-04-08T11:04:35.016Z,13.46
2023-04-08T11:07:09.298Z,13.45
2023-04-08T11:09:37.930Z,13.57
2023-04-08T11:12:04.826Z,13.50
2023-04-08T11:14:33.293Z,13.56
2023-04-08T11:17:02.841Z,13.42
2023-04-08T11:19:33.142Z,13.29
2023-04-08T11:22:01.356Z,13.30
2023-04-08T11:24:30.393Z,13.32
2023-04-08T11:26:58.031Z,13.52
2023-04-08T11:29:25.611Z,13.58
2023-04-08T11:31:53.391Z,13.74
2023-04-08T11:34:24.692Z,13.73
2023-04-08T11:36:55.506Z,13.94
2023-04-08T11:39:26.432Z,13.92
2023-04-08T11:41:53.297Z,14.12
2023-04-08T11:44:19.920Z,13.97
2023-04-08T11:46:57.278Z,14.16
2023-04-08T11:49:24.296Z,14.22
2023-04-08T11:51:59.404Z,14.01
2023-04-08T11:54:30.617Z,14.00
2023-04-08T11:56:58.438Z,14.05
2023-04-08T11:59:27.433Z,14.14
2023-04-08T12:01:56.080Z,14.20
2023-04-08T12:04:22.905Z,14.36
2023-04-08T12:06:52.443Z,14.73
2023-04-08T12:09:19.391Z,14.91
2023-04-08T12:11:48.540Z,15.33
2023-04-08T12:14:15.278Z,15.22
2023-04-08T12:16:41.953Z,14.86
2023-04-08T12:19:10.118Z,15.39
2023-04-08T12:21:36.808Z,15.28
2023-04-08T12:24:03.471Z,15.09
2023-04-08T12:26:32.350Z,15.11
2023-04-08T12:28:58.913Z,15.27
2023-04-08T12:31:28.543Z,15.40
2023-04-08T12:33:55.245Z,15.21
2023-04-08T12:36:24.858Z,15.22
2023-04-08T12:38:54.120Z,15.26
2023-04-08T12:41:20.664Z,15.43
2023-04-08T12:43:47.231Z,15.62
2023-04-08T12:46:13.831Z,15.97
2023-04-08T12:48:40.933Z,16.38
2023-04-08T12:51:10.267Z,16.63
2023-04-08T12:53:36.921Z,16.50
2023-04-08T12:56:03.746Z,16.35
2023-04-08T12:58:30.638Z,16.14
2023-04-08T13:00:57.289Z,16.14
2023-04-08T13:03:24.082Z,16.12
2023-04-08T13:05:55.585Z,15.91
2023-04-08T13:08:22.369Z,15.94
2023-04-08T13:10:49.070Z,15.79
2023-04-08T13:13:18.631Z,15.58
2023-04-08T13:15:47.830Z,15.59
2023-04-08T13:18:17.099Z,15.53
2023-04-08T13:20:43.711Z,15.52
2023-04-08T13:23:10.445Z,15.47
2023-04-08T13:25:39.294Z,15.48
2023-04-08T13:28:06.043Z,15.62
2023-04-08T13:30:32.624Z,15.64
2023-04-08T13:32:59.266Z,15.68
2023-04-08T13:35:29.054Z,15.67
2023-04-08T13:37:58.193Z,15.61
2023-04-08T13:40:27.175Z,15.72
2023-04-08T13:42:54.410Z,15.79
2023-04-08T13:45:21.960Z,15.84
2023-04-08T13:47:50.173Z,15.94
2023-04-08T13:50:17.190Z,15.77
2023-04-08T13:52:46.554Z,15.75
2023-04-08T13:55:16.936Z,15.81
2023-04-08T13:57:47.118Z,15.83
2023-04-08T14:00:14.903Z,15.76
2023-04-08T14:02:43.032Z,15.84
2023-04-08T14:05:10.976Z,15.77
2023-04-08T14:07:38.544Z,15.65
2023-04-08T14:10:09.863Z,15.66
2023-04-08T14:12:37.225Z,15.35
2023-04-08T14:15:05.310Z,15.43
2023-04-08T14:17:36.089Z,15.28
2023-04-08T14:20:06.829Z,15.57
2023-04-08T14:22:34.004Z,15.62
2023-04-08T14:25:01.228Z,15.67
2023-04-08T14:27:30.123Z,14.78
2023-04-08T14:29:56.759Z,15.49
2023-04-08T14:32:25.641Z,15.49
2023-04-08T14:34:52.314Z,15.38
2023-04-08T14:37:21.112Z,15.31
2023-04-08T14:39:47.678Z,15.32
2023-04-08T14:42:17.202Z,15.42
2023-04-08T14:44:44.322Z,15.57
2023-04-08T14:47:12.343Z,15.70
2023-04-08T14:49:39.802Z,15.70
2023-04-08T14:52:06.427Z,15.57
2023-04-08T14:54:33.076Z,15.53
2023-04-08T14:56:59.612Z,15.44
2023-04-08T14:59:26.228Z,15.41
2023-04-08T15:01:52.925Z,15.38
2023-04-08T15:04:19.541Z,15.66
2023-04-08T15:06:46.223Z,15.84
2023-04-08T15:09:13.140Z,16.23
2023-04-08T15:11:39.741Z,16.38
2023-04-08T15:14:06.372Z,16.56
2023-04-08T15:16:33.198Z,16.49
2023-04-08T15:19:00.574Z,16.69
2023-04-08T15:21:27.378Z,16.58
2023-04-08T15:23:55.996Z,16.53
2023-04-08T15:26:25.439Z,16.45
2023-04-08T15:28:54.909Z,16.47
2023-04-08T15:31:22.441Z,16.47
2023-04-08T15:33:50.100Z,16.44
2023-04-08T15:36:21.272Z,16.22
2023-04-08T15:38:50.194Z,16.18
2023-04-08T15:41:21.726Z,16.11
2023-04-08T15:43:54.578Z,15.92
2023-04-08T15:46:22.822Z,15.77
2023-04-08T15:48:51.032Z,15.79
2023-04-08T15:51:18.271Z,15.79
2023-04-08T15:53:46.250Z,15.78
2023-04-08T15:56:16.767Z,15.75
2023-04-08T15:58:44.929Z,15.71
2023-04-08T16:01:12.518Z,15.59
2023-04-08T16:03:40.730Z,15.23
2023-04-08T16:06:10.334Z,15.47
2023-04-08T16:08:37.238Z,15.59
2023-04-08T16:11:08.860Z,15.50
2023-04-08T16:13:35.603Z,15.44
2023-04-08T16:16:02.888Z,15.42
2023-04-08T16:18:34.344Z,15.02
2023-04-08T16:21:04.659Z,15.15
2023-04-08T16:23:31.495Z,15.16
2023-04-08T16:25:58.181Z,15.16
2023-04-08T16:28:27.549Z,15.13
2023-04-08T16:30:54.729Z,15.07
2023-04-08T16:33:30.047Z,14.90
2023-04-08T16:36:01.483Z,14.87
2023-04-08T16:38:29.186Z,14.77
2023-04-08T16:40:59.871Z,14.80
2023-04-08T16:43:26.812Z,14.84
2023-04-08T16:45:54.855Z,14.77
2023-04-08T16:48:23.897Z,14.83
2023-04-08T16:50:52.494Z,14.75
2023-04-08T16:53:19.249Z,14.66
2023-04-08T16:55:47.334Z,14.63
2023-04-08T16:58:14.080Z,14.50
2023-04-08T17:00:43.703Z,14.48
2023-04-08T17:03:10.943Z,14.35
2023-04-08T17:05:41.739Z,14.30
2023-04-08T17:08:08.673Z,14.19
2023-04-08T17:10:35.218Z,14.02
2023-04-08T17:13:02.272Z,13.86
2023-04-08T17:15:31.548Z,14.00
2023-04-08T17:17:58.225Z,13.93
2023-04-08T17:20:26.517Z,13.93
2023-04-08T17:22:56.277Z,13.83
2023-04-08T17:25:23.960Z,13.68
2023-04-08T17:27:50.512Z,13.67
2023-04-08T17:30:17.177Z,13.55
2023-04-08T17:32:44.345Z,13.46
2023-04-08T17:35:11.858Z,13.39
2023-04-08T17:37:39.303Z,13.34
2023-04-08T17:40:08.032Z,13.26
2023-04-08T17:42:35.241Z,13.20
2023-04-08T17:45:03.124Z,13.12
2023-04-08T17:47:31.144Z,13.06
2023-04-08T17:49:58.547Z,12.93
2023-04-08T17:52:25.622Z,12.89
2023-04-08T17:54:54.024Z,12.68
2023-04-08T17:57:20.965Z,12.78
2023-04-08T17:59:48.449Z,12.72
2023-04-08T18:02:15.493Z,12.54
2023-04-08T18:04:43.691Z,12.60
2023-04-08T18:07:12.057Z,12.50
2023-04-08T18:09:39.032Z,12.49
2023-04-08T18:12:06.892Z,12.31
2023-04-08T18:14:36.104Z,12.35
2023-04-08T18:17:03.585Z,12.18
2023-04-08T18:19:30.535Z,12.25
2023-04-08T18:21:57.091Z,12.16
2023-04-08T18:24:24.092Z,12.13
2023-04-08T18:27:01.505Z,12.02
2023-04-08T18:29:30.416Z,12.00
2023-04-08T18:31:59.358Z,11.97
2023-04-08T18:34:26.711Z,11.89
2023-04-08T18:36:53.628Z,11.85
2023-04-08T18:39:20.474Z,11.82
2023-04-08T18:41:47.115Z,11.74
2023-04-08T18:44:13.802Z,11.67
2023-04-08T18:46:40.578Z,11.64
2023-04-08T18:49:07.215Z,11.55
2023-04-08T18:51:36.430Z,11.22
2023-04-08T18:54:03.113Z,11.49
2023-04-08T18:56:32.233Z,11.46
2023-04-08T18:58:58.801Z,11.37
2023-04-08T19:01:30.041Z,11.32
2023-04-08T19:03:56.905Z,11.37
2023-04-08T19:06:23.726Z,11.22
2023-04-08T19:08:50.380Z,11.34
2023-04-08T19:11:17.018Z,11.01
2023-04-08T19:13:45.902Z,11.33
2023-04-08T19:16:12.846Z,11.34
2023-04-08T19:18:41.672Z,11.37
2023-04-08T19:21:11.752Z,11.34
2023-04-08T19:23:38.395Z,11.36
2023-04-08T19:26:08.732Z,11.07
2023-04-08T19:28:37.740Z,11.45
2023-04-08T19:31:04.654Z,11.63
2023-04-08T19:33:31.394Z,11.44
2023-04-08T19:35:57.980Z,11.53
2023-04-08T19:38:26.954Z,11.47
2023-04-08T19:40:56.080Z,11.38
2023-04-08T19:43:22.855Z,11.55
2023-04-08T19:45:55.896Z,11.59
2023-04-08T19:48:26.113Z,11.51
2023-04-08T19:50:52.897Z,11.62
2023-04-08T19:53:19.507Z,11.63
2023-04-08T19:55:48.660Z,11.63
2023-04-08T19:58:16.015Z,11.62
2023-04-08T20:00:42.713Z,11.65
2023-04-08T20:03:09.550Z,11.56
2023-04-08T20:05:36.830Z,11.65
2023-04-08T20:08:03.830Z,11.66
2023-04-08T20:10:32.647Z,11.66
2023-04-08T20:12:59.279Z,11.53
2023-04-08T20:15:25.963Z,11.64
2023-04-08T20:17:53.328Z,11.63
2023-04-08T20:20:23.075Z,11.66
2023-04-08T20:22:50.420Z,11.58
2023-04-08T20:25:17.965Z,11.52
2023-04-08T20:27:44.691Z,11.67
2023-04-08T20:30:12.381Z,11.44
2023-04-08T20:32:39.009Z,11.62
2023-04-08T20:35:05.884Z,11.64
2023-04-08T20:37:35.715Z,11.53
2023-04-08T20:40:02.602Z,11.62
2023-04-08T20:42:29.264Z,11.59
2023-04-08T20:44:56.036Z,11.53
2023-04-08T20:47:22.675Z,11.48
2023-04-08T20:49:49.719Z,11.51
2023-04-08T20:52:16.513Z,11.44
2023-04-08T20:54:45.492Z,11.49
2023-04-08T20:57:12.126Z,11.40
2023-04-08T20:59:38.729Z,11.45
2023-04-08T21:02:06.255Z,11.44
2023-04-08T21:04:36.075Z,11.23
2023-04-08T21:07:02.977Z,11.40
2023-04-08T21:09:30.062Z,11.34
2023-04-08T21:11:56.760Z,11.34
2023-04-08T21:14:31.147Z,10.75
2023-04-08T21:16:58.468Z,11.31
2023-04-08T21:19:25.358Z,11.26
2023-04-08T21:21:52.004Z,11.23
2023-04-08T21:24:18.763Z,11.24
2023-04-08T21:26:45.540Z,11.24
2023-04-08T21:29:12.910Z,11.30
2023-04-08T21:31:41.282Z,11.24
2023-04-08T21:34:11.018Z,11.20
2023-04-08T21:36:37.874Z,11.37
2023-04-08T21:39:07.057Z,11.23
2023-04-08T21:41:33.777Z,11.19
2023-04-08T21:44:00.421Z,11.11
2023-04-08T21:46:27.100Z,11.10
2023-04-08T21:48:56.465Z,11.11
2023-04-08T21:51:23.160Z,11.07
2023-04-08T21:53:50.878Z,11.04
2023-04-08T21:56:18.643Z,10.96
2023-04-08T21:58:45.552Z,11.02
2023-04-08T22:01:12.191Z,10.98
2023-04-08T22:03:41.523Z,10.97
2023-04-08T22:06:12.686Z,10.96
2023-04-08T22:08:43.534Z,10.93
2023-04-08T22:11:10.257Z,10.90
2023-04-08T22:13:36.900Z,10.31
2023-04-08T22:16:06.089Z,10.85
2023-04-08T22:18:35.407Z,10.82
2023-04-08T22:21:02.096Z,10.87
2023-04-08T22:23:28.924Z,10.82
2023-04-08T22:25:55.794Z,10.85
2023-04-08T22:28:23.520Z,10.82
2023-04-08T22:30:50.256Z,10.85
2023-04-08T22:33:19.217Z,10.87
2023-04-08T22:35:45.878Z,10.80
2023-04-08T22:38:12.508Z,10.82
2023-04-08T22:40:39.270Z,10.84
2023-04-08T22:43:08.216Z,10.72
2023-04-08T22:45:37.555Z,10.82
2023-04-08T22:48:06.747Z,10.82
2023-04-08T22:50:38.344Z,10.83
2023-04-08T22:53:07.632Z,10.83
2023-04-08T22:55:34.274Z,10.88
2023-04-08T22:58:03.429Z,10.82
2023-04-08T23:00:30.712Z,10.78
2023-04-08T23:03:04.811Z,10.80
2023-04-08T23:05:33.778Z,10.85
2023-04-08T23:08:02.795Z,10.79
2023-04-08T23:10:29.495Z,10.76
2023-04-08T23:12:56.297Z,10.79
2023-04-08T23:15:23.215Z,10.76
2023-04-08T23:17:49.841Z,10.83
2023-04-08T23:20:16.614Z,10.72
2023-04-08T23:22:45.687Z,10.73
2023-04-08T23:25:12.331Z,10.81
2023-04-08T23:27:39.084Z,10.77
2023-04-08T23:30:06.530Z,10.78
2023-04-08T23:32:35.145Z,10.64
2023-04-08T23:35:02.731Z,10.74
2023-04-08T23:37:29.740Z,10.73
2023-04-08T23:39:56.381Z,10.73
2023-04-08T23:42:27.268Z,10.72
2023-04-08T23:44:54.966Z,10.64
2023-04-08T23:47:22.134Z,10.61
2023-04-08T23:49:49.691Z,10.72
2023-04-08T23:52:18.765Z,10.68
2023-04-08T23:54:50.342Z,10.71
2023-04-08T23:57:17.378Z,10.74
2023-04-08T23:59:44.124Z,10.63
